sensor_id;sensor_type;location;lat;lon;timestamp;P1;durP1;ratioP1;P2;durP2;ratioP2
51660;SDS011;37741;49.748;8.490;2023-04-24T00:00:16;1.80;;;0.60;;
51660;SDS011;37741;49.748;8.490;2023-04-24T00:02:42;2.20;;;0.80;;
51660;SDS011;37741;49.748;8.490;2023-04-24T00:05:12;1.67;;;0.80;;
51660;SDS011;37741;49.748;8.490;2023-04-24T00:07:39;1.98;;;0.98;;
51660;SDS011;37741;49.748;8.490;2023-04-24T00:10:05;2.55;;;0.80;;
51660;SDS011;37741;49.748;8.490;2023-04-24T00:12:32;3.17;;;0.55;;
51660;SDS011;37741;49.748;8.490;2023-04-24T00:14:58;2.45;;;0.90;;
51660;SDS011;37741;49.748;8.490;2023-04-24T00:17:23;2.97;;;0.82;;
51660;SDS011;37741;49.748;8.490;2023-04-24T00:19:49;2.45;;;0.70;;
51660;SDS011;37741;49.748;8.490;2023-04-24T00:22:23;2.47;;;0.77;;
51660;SDS011;37741;49.748;8.490;2023-04-24T00:24:49;1.60;;;0.80;;
51660;SDS011;37741;49.748;8.490;2023-04-24T00:27:15;3.28;;;0.82;;
51660;SDS011;37741;49.748;8.490;2023-04-24T00:29:41;2.35;;;0.60;;
51660;SDS011;37741;49.748;8.490;2023-04-24T00:32:06;2.08;;;0.70;;
51660;SDS011;37741;49.748;8.490;2023-04-24T00:34:32;2.40;;;0.85;;
51660;SDS011;37741;49.748;8.490;2023-04-24T00:36:58;1.63;;;0.80;;
51660;SDS011;37741;49.748;8.490;2023-04-24T00:39:23;1.45;;;0.70;;
51660;SDS011;37741;49.748;8.490;2023-04-24T00:41:49;1.55;;;0.80;;
51660;SDS011;37741;49.748;8.490;2023-04-24T00:44:16;4.00;;;0.90;;
51660;SDS011;37741;49.748;8.490;2023-04-24T00:46:42;4.22;;;0.90;;
51660;SDS011;37741;49.748;8.490;2023-04-24T00:49:07;2.13;;;0.82;;
51660;SDS011;37741;49.748;8.490;2023-04-24T00:51:33;1.25;;;0.60;;
51660;SDS011;37741;49.748;8.490;2023-04-24T00:53:59;1.50;;;0.70;;
51660;SDS011;37741;49.748;8.490;2023-04-24T00:56:25;1.55;;;0.63;;
51660;SDS011;37741;49.748;8.490;2023-04-24T00:58:51;2.53;;;0.90;;
51660;SDS011;37741;49.748;8.490;2023-04-24T01:01:21;1.80;;;0.60;;
51660;SDS011;37741;49.748;8.490;2023-04-24T01:03:47;2.97;;;0.65;;
51660;SDS011;37741;49.748;8.490;2023-04-24T01:06:15;2.88;;;1.10;;
51660;SDS011;37741;49.748;8.490;2023-04-24T01:08:43;2.30;;;0.88;;
51660;SDS011;37741;49.748;8.490;2023-04-24T01:11:10;2.25;;;0.85;;
51660;SDS011;37741;49.748;8.490;2023-04-24T01:13:36;2.50;;;0.80;;
51660;SDS011;37741;49.748;8.490;2023-04-24T01:16:01;2.28;;;0.90;;
51660;SDS011;37741;49.748;8.490;2023-04-24T01:18:27;2.92;;;0.80;;
51660;SDS011;37741;49.748;8.490;2023-04-24T01:20:53;3.40;;;0.93;;
51660;SDS011;37741;49.748;8.490;2023-04-24T01:23:23;2.00;;;0.70;;
51660;SDS011;37741;49.748;8.490;2023-04-24T01:25:48;2.97;;;0.90;;
51660;SDS011;37741;49.748;8.490;2023-04-24T01:28:15;1.90;;;0.98;;
51660;SDS011;37741;49.748;8.490;2023-04-24T01:30:41;4.72;;;0.95;;
51660;SDS011;37741;49.748;8.490;2023-04-24T01:33:07;2.47;;;0.95;;
51660;SDS011;37741;49.748;8.490;2023-04-24T01:35:33;3.00;;;0.82;;
51660;SDS011;37741;49.748;8.490;2023-04-24T01:37:59;2.97;;;0.80;;
51660;SDS011;37741;49.748;8.490;2023-04-24T01:40:25;2.50;;;0.90;;
51660;SDS011;37741;49.748;8.490;2023-04-24T01:42:50;2.83;;;0.70;;
51660;SDS011;37741;49.748;8.490;2023-04-24T01:45:17;2.85;;;1.05;;
51660;SDS011;37741;49.748;8.490;2023-04-24T01:47:42;1.70;;;0.60;;
51660;SDS011;37741;49.748;8.490;2023-04-24T01:50:09;2.08;;;0.68;;
51660;SDS011;37741;49.748;8.490;2023-04-24T01:52:34;1.92;;;0.60;;
51660;SDS011;37741;49.748;8.490;2023-04-24T01:55:01;2.25;;;0.90;;
51660;SDS011;37741;49.748;8.490;2023-04-24T01:57:30;2.22;;;0.88;;
51660;SDS011;37741;49.748;8.490;2023-04-24T01:59:56;1.65;;;0.80;;
51660;SDS011;37741;49.748;8.490;2023-04-24T02:02:22;2.78;;;0.80;;
51660;SDS011;37741;49.748;8.490;2023-04-24T02:04:54;1.70;;;0.55;;
51660;SDS011;37741;49.748;8.490;2023-04-24T02:07:20;1.63;;;0.88;;
51660;SDS011;37741;49.748;8.490;2023-04-24T02:09:46;2.33;;;0.90;;
51660;SDS011;37741;49.748;8.490;2023-04-24T02:12:11;2.28;;;0.80;;
51660;SDS011;37741;49.748;8.490;2023-04-24T02:14:37;1.45;;;0.80;;
51660;SDS011;37741;49.748;8.490;2023-04-24T02:17:03;2.92;;;0.80;;
51660;SDS011;37741;49.748;8.490;2023-04-24T02:19:29;2.47;;;0.95;;
51660;SDS011;37741;49.748;8.490;2023-04-24T02:21:55;2.90;;;0.80;;
51660;SDS011;37741;49.748;8.490;2023-04-24T02:24:21;1.73;;;0.77;;
51660;SDS011;37741;49.748;8.490;2023-04-24T02:26:47;1.67;;;0.75;;
51660;SDS011;37741;49.748;8.490;2023-04-24T02:29:13;3.40;;;1.10;;
51660;SDS011;37741;49.748;8.490;2023-04-24T02:31:39;3.67;;;0.75;;
51660;SDS011;37741;49.748;8.490;2023-04-24T02:34:05;1.50;;;0.65;;
51660;SDS011;37741;49.748;8.490;2023-04-24T02:36:30;2.47;;;0.80;;
51660;SDS011;37741;49.748;8.490;2023-04-24T02:38:56;2.30;;;0.77;;
51660;SDS011;37741;49.748;8.490;2023-04-24T02:41:22;3.53;;;1.45;;
51660;SDS011;37741;49.748;8.490;2023-04-24T02:43:47;1.92;;;0.70;;
51660;SDS011;37741;49.748;8.490;2023-04-24T02:46:13;2.95;;;1.13;;
51660;SDS011;37741;49.748;8.490;2023-04-24T02:48:39;3.00;;;0.80;;
51660;SDS011;37741;49.748;8.490;2023-04-24T02:51:05;2.38;;;0.88;;
51660;SDS011;37741;49.748;8.490;2023-04-24T02:53:31;4.47;;;1.00;;
51660;SDS011;37741;49.748;8.490;2023-04-24T02:55:57;2.65;;;0.93;;
51660;SDS011;37741;49.748;8.490;2023-04-24T02:58:23;2.42;;;0.90;;
51660;SDS011;37741;49.748;8.490;2023-04-24T03:00:48;1.27;;;0.55;;
51660;SDS011;37741;49.748;8.490;2023-04-24T03:03:17;1.83;;;0.70;;
51660;SDS011;37741;49.748;8.490;2023-04-24T03:05:43;2.15;;;0.82;;
51660;SDS011;37741;49.748;8.490;2023-04-24T03:08:09;2.20;;;0.90;;
51660;SDS011;37741;49.748;8.490;2023-04-24T03:10:35;1.42;;;0.57;;
51660;SDS011;37741;49.748;8.490;2023-04-24T03:13:01;3.83;;;0.90;;
51660;SDS011;37741;49.748;8.490;2023-04-24T03:15:26;2.28;;;0.90;;
51660;SDS011;37741;49.748;8.490;2023-04-24T03:17:52;1.63;;;0.52;;
51660;SDS011;37741;49.748;8.490;2023-04-24T03:20:18;3.78;;;0.90;;
51660;SDS011;37741;49.748;8.490;2023-04-24T03:22:43;2.08;;;0.80;;
51660;SDS011;37741;49.748;8.490;2023-04-24T03:25:09;2.72;;;0.98;;
51660;SDS011;37741;49.748;8.490;2023-04-24T03:27:35;1.83;;;0.75;;
51660;SDS011;37741;49.748;8.490;2023-04-24T03:30:00;1.95;;;0.80;;
51660;SDS011;37741;49.748;8.490;2023-04-24T03:32:27;2.13;;;0.68;;
51660;SDS011;37741;49.748;8.490;2023-04-24T03:34:52;1.52;;;0.55;;
51660;SDS011;37741;49.748;8.490;2023-04-24T03:37:18;1.25;;;0.55;;
51660;SDS011;37741;49.748;8.490;2023-04-24T03:39:44;5.50;;;1.52;;
51660;SDS011;37741;49.748;8.490;2023-04-24T03:42:09;1.83;;;0.55;;
51660;SDS011;37741;49.748;8.490;2023-04-24T03:44:35;2.53;;;0.85;;
51660;SDS011;37741;49.748;8.490;2023-04-24T03:47:01;1.92;;;0.52;;
51660;SDS011;37741;49.748;8.490;2023-04-24T03:49:27;2.33;;;0.68;;
51660;SDS011;37741;49.748;8.490;2023-04-24T03:51:52;1.85;;;0.60;;
51660;SDS011;37741;49.748;8.490;2023-04-24T03:54:21;2.30;;;0.73;;
51660;SDS011;37741;49.748;8.490;2023-04-24T03:56:47;3.53;;;0.70;;
51660;SDS011;37741;49.748;8.490;2023-04-24T03:59:12;1.50;;;0.75;;
51660;SDS011;37741;49.748;8.490;2023-04-24T04:01:38;2.10;;;1.10;;
51660;SDS011;37741;49.748;8.490;2023-04-24T04:04:04;1.85;;;0.70;;
51660;SDS011;37741;49.748;8.490;2023-04-24T04:06:33;1.50;;;0.70;;
51660;SDS011;37741;49.748;8.490;2023-04-24T04:08:59;1.90;;;0.80;;
51660;SDS011;37741;49.748;8.490;2023-04-24T04:11:25;3.00;;;1.40;;
51660;SDS011;37741;49.748;8.490;2023-04-24T04:13:51;2.53;;;0.70;;
51660;SDS011;37741;49.748;8.490;2023-04-24T04:16:17;1.45;;;0.80;;
51660;SDS011;37741;49.748;8.490;2023-04-24T04:18:43;1.90;;;0.60;;
51660;SDS011;37741;49.748;8.490;2023-04-24T04:21:09;1.27;;;0.65;;
51660;SDS011;37741;49.748;8.490;2023-04-24T04:23:35;2.67;;;0.90;;
51660;SDS011;37741;49.748;8.490;2023-04-24T04:26:01;2.03;;;0.85;;
51660;SDS011;37741;49.748;8.490;2023-04-24T04:28:27;1.73;;;0.70;;
51660;SDS011;37741;49.748;8.490;2023-04-24T04:30:52;2.30;;;1.05;;
51660;SDS011;37741;49.748;8.490;2023-04-24T04:33:22;1.95;;;0.70;;
51660;SDS011;37741;49.748;8.490;2023-04-24T04:35:51;2.35;;;0.70;;
51660;SDS011;37741;49.748;8.490;2023-04-24T04:38:20;1.52;;;0.73;;
51660;SDS011;37741;49.748;8.490;2023-04-24T04:40:46;1.23;;;0.57;;
51660;SDS011;37741;49.748;8.490;2023-04-24T04:43:11;2.70;;;1.00;;
51660;SDS011;37741;49.748;8.490;2023-04-24T04:45:40;1.77;;;0.95;;
51660;SDS011;37741;49.748;8.490;2023-04-24T04:48:08;1.45;;;0.77;;
51660;SDS011;37741;49.748;8.490;2023-04-24T04:50:34;1.77;;;0.88;;
51660;SDS011;37741;49.748;8.490;2023-04-24T04:53:00;2.80;;;1.13;;
51660;SDS011;37741;49.748;8.490;2023-04-24T04:55:26;2.95;;;1.08;;
51660;SDS011;37741;49.748;8.490;2023-04-24T04:57:52;2.33;;;0.90;;
51660;SDS011;37741;49.748;8.490;2023-04-24T05:00:17;2.58;;;0.85;;
51660;SDS011;37741;49.748;8.490;2023-04-24T05:02:44;2.42;;;1.10;;
51660;SDS011;37741;49.748;8.490;2023-04-24T05:05:10;2.53;;;1.00;;
51660;SDS011;37741;49.748;8.490;2023-04-24T05:07:35;2.08;;;1.17;;
51660;SDS011;37741;49.748;8.490;2023-04-24T05:10:01;2.75;;;1.20;;
51660;SDS011;37741;49.748;8.490;2023-04-24T05:12:27;2.53;;;1.38;;
51660;SDS011;37741;49.748;8.490;2023-04-24T05:14:53;1.85;;;1.00;;
51660;SDS011;37741;49.748;8.490;2023-04-24T05:17:18;1.80;;;0.82;;
51660;SDS011;37741;49.748;8.490;2023-04-24T05:19:44;1.60;;;0.85;;
51660;SDS011;37741;49.748;8.490;2023-04-24T05:22:09;2.30;;;1.08;;
51660;SDS011;37741;49.748;8.490;2023-04-24T05:24:36;2.35;;;1.50;;
51660;SDS011;37741;49.748;8.490;2023-04-24T05:27:02;2.78;;;1.20;;
51660;SDS011;37741;49.748;8.490;2023-04-24T05:29:29;1.58;;;0.90;;
51660;SDS011;37741;49.748;8.490;2023-04-24T05:31:58;2.47;;;1.30;;
51660;SDS011;37741;49.748;8.490;2023-04-24T05:34:25;2.38;;;1.15;;
51660;SDS011;37741;49.748;8.490;2023-04-24T05:36:51;3.95;;;1.50;;
51660;SDS011;37741;49.748;8.490;2023-04-24T05:39:17;2.80;;;1.25;;
51660;SDS011;37741;49.748;8.490;2023-04-24T05:41:43;4.43;;;1.60;;
51660;SDS011;37741;49.748;8.490;2023-04-24T05:44:08;2.45;;;1.40;;
51660;SDS011;37741;49.748;8.490;2023-04-24T05:46:34;2.63;;;1.70;;
51660;SDS011;37741;49.748;8.490;2023-04-24T05:49:00;2.42;;;1.30;;
51660;SDS011;37741;49.748;8.490;2023-04-24T05:51:27;2.33;;;1.48;;
51660;SDS011;37741;49.748;8.490;2023-04-24T05:53:53;3.30;;;1.70;;
51660;SDS011;37741;49.748;8.490;2023-04-24T05:56:18;2.42;;;1.80;;
51660;SDS011;37741;49.748;8.490;2023-04-24T05:58:45;2.88;;;1.60;;
51660;SDS011;37741;49.748;8.490;2023-04-24T06:01:11;2.83;;;1.60;;
51660;SDS011;37741;49.748;8.490;2023-04-24T06:03:37;2.63;;;1.60;;
51660;SDS011;37741;49.748;8.490;2023-04-24T06:06:05;2.33;;;1.60;;
51660;SDS011;37741;49.748;8.490;2023-04-24T06:08:31;2.55;;;1.30;;
51660;SDS011;37741;49.748;8.490;2023-04-24T06:10:57;2.50;;;1.45;;
51660;SDS011;37741;49.748;8.490;2023-04-24T06:13:23;2.05;;;1.35;;
51660;SDS011;37741;49.748;8.490;2023-04-24T06:15:49;3.75;;;1.58;;
51660;SDS011;37741;49.748;8.490;2023-04-24T06:18:15;2.65;;;1.50;;
51660;SDS011;37741;49.748;8.490;2023-04-24T06:20:40;2.78;;;1.83;;
51660;SDS011;37741;49.748;8.490;2023-04-24T06:23:06;2.80;;;1.75;;
51660;SDS011;37741;49.748;8.490;2023-04-24T06:25:32;3.72;;;1.77;;
51660;SDS011;37741;49.748;8.490;2023-04-24T06:27:57;3.47;;;1.98;;
51660;SDS011;37741;49.748;8.490;2023-04-24T06:30:23;4.32;;;2.35;;
51660;SDS011;37741;49.748;8.490;2023-04-24T06:32:49;2.53;;;1.85;;
51660;SDS011;37741;49.748;8.490;2023-04-24T06:35:14;3.35;;;1.88;;
51660;SDS011;37741;49.748;8.490;2023-04-24T06:37:40;4.95;;;2.25;;
51660;SDS011;37741;49.748;8.490;2023-04-24T06:40:07;3.45;;;2.15;;
51660;SDS011;37741;49.748;8.490;2023-04-24T06:42:33;3.38;;;1.98;;
51660;SDS011;37741;49.748;8.490;2023-04-24T06:45:00;3.67;;;1.92;;
51660;SDS011;37741;49.748;8.490;2023-04-24T06:47:26;3.20;;;2.30;;
51660;SDS011;37741;49.748;8.490;2023-04-24T06:49:51;2.83;;;2.28;;
51660;SDS011;37741;49.748;8.490;2023-04-24T06:52:18;3.55;;;2.58;;
51660;SDS011;37741;49.748;8.490;2023-04-24T06:54:44;3.72;;;1.90;;
51660;SDS011;37741;49.748;8.490;2023-04-24T06:57:10;4.03;;;2.55;;
51660;SDS011;37741;49.748;8.490;2023-04-24T06:59:35;3.22;;;1.98;;
51660;SDS011;37741;49.748;8.490;2023-04-24T07:02:01;4.30;;;2.00;;
51660;SDS011;37741;49.748;8.490;2023-04-24T07:04:28;4.82;;;2.83;;
51660;SDS011;37741;49.748;8.490;2023-04-24T07:06:54;3.22;;;2.13;;
51660;SDS011;37741;49.748;8.490;2023-04-24T07:09:20;3.67;;;2.70;;
51660;SDS011;37741;49.748;8.490;2023-04-24T07:11:48;3.47;;;2.53;;
51660;SDS011;37741;49.748;8.490;2023-04-24T07:14:14;5.32;;;2.38;;
51660;SDS011;37741;49.748;8.490;2023-04-24T07:16:40;3.85;;;2.50;;
51660;SDS011;37741;49.748;8.490;2023-04-24T07:19:06;4.90;;;3.05;;
51660;SDS011;37741;49.748;8.490;2023-04-24T07:21:32;6.93;;;2.70;;
51660;SDS011;37741;49.748;8.490;2023-04-24T07:23:58;3.95;;;2.40;;
51660;SDS011;37741;49.748;8.490;2023-04-24T07:26:24;4.80;;;2.65;;
51660;SDS011;37741;49.748;8.490;2023-04-24T07:28:50;3.40;;;2.30;;
51660;SDS011;37741;49.748;8.490;2023-04-24T07:31:16;2.75;;;2.10;;
51660;SDS011;37741;49.748;8.490;2023-04-24T07:33:42;4.45;;;2.50;;
51660;SDS011;37741;49.748;8.490;2023-04-24T07:36:07;3.50;;;2.30;;
51660;SDS011;37741;49.748;8.490;2023-04-24T07:38:33;4.90;;;2.55;;
51660;SDS011;37741;49.748;8.490;2023-04-24T07:40:58;3.47;;;2.28;;
51660;SDS011;37741;49.748;8.490;2023-04-24T07:43:24;3.35;;;2.47;;
51660;SDS011;37741;49.748;8.490;2023-04-24T07:45:50;3.42;;;2.50;;
51660;SDS011;37741;49.748;8.490;2023-04-24T07:48:16;3.63;;;2.58;;
51660;SDS011;37741;49.748;8.490;2023-04-24T07:50:42;3.42;;;2.45;;
51660;SDS011;37741;49.748;8.490;2023-04-24T07:53:08;4.10;;;2.10;;
51660;SDS011;37741;49.748;8.490;2023-04-24T07:55:34;3.40;;;1.88;;
51660;SDS011;37741;49.748;8.490;2023-04-24T07:58:00;3.17;;;2.08;;
51660;SDS011;37741;49.748;8.490;2023-04-24T08:00:25;4.88;;;1.92;;
51660;SDS011;37741;49.748;8.490;2023-04-24T08:02:51;3.60;;;1.85;;
51660;SDS011;37741;49.748;8.490;2023-04-24T08:05:16;2.50;;;1.80;;
51660;SDS011;37741;49.748;8.490;2023-04-24T08:07:42;2.90;;;1.90;;
51660;SDS011;37741;49.748;8.490;2023-04-24T08:10:09;5.13;;;1.98;;
51660;SDS011;37741;49.748;8.490;2023-04-24T08:12:36;2.78;;;1.55;;
51660;SDS011;37741;49.748;8.490;2023-04-24T08:15:02;3.03;;;1.77;;
51660;SDS011;37741;49.748;8.490;2023-04-24T08:17:29;3.75;;;1.60;;
51660;SDS011;37741;49.748;8.490;2023-04-24T08:19:55;2.67;;;1.85;;
51660;SDS011;37741;49.748;8.490;2023-04-24T08:22:26;3.08;;;1.75;;
51660;SDS011;37741;49.748;8.490;2023-04-24T08:24:52;3.40;;;1.90;;
51660;SDS011;37741;49.748;8.490;2023-04-24T08:27:18;3.25;;;1.92;;
51660;SDS011;37741;49.748;8.490;2023-04-24T08:29:43;4.00;;;1.75;;
51660;SDS011;37741;49.748;8.490;2023-04-24T08:32:09;4.05;;;1.70;;
51660;SDS011;37741;49.748;8.490;2023-04-24T08:34:35;3.13;;;1.80;;
51660;SDS011;37741;49.748;8.490;2023-04-24T08:37:00;4.40;;;1.90;;
51660;SDS011;37741;49.748;8.490;2023-04-24T08:39:27;3.60;;;1.90;;
51660;SDS011;37741;49.748;8.490;2023-04-24T08:41:52;2.60;;;1.75;;
51660;SDS011;37741;49.748;8.490;2023-04-24T08:44:18;5.93;;;2.38;;
51660;SDS011;37741;49.748;8.490;2023-04-24T08:46:45;2.65;;;2.03;;
51660;SDS011;37741;49.748;8.490;2023-04-24T08:49:14;4.80;;;2.45;;
51660;SDS011;37741;49.748;8.490;2023-04-24T08:51:43;2.47;;;1.77;;
51660;SDS011;37741;49.748;8.490;2023-04-24T08:54:10;2.38;;;1.67;;
51660;SDS011;37741;49.748;8.490;2023-04-24T08:56:37;3.25;;;1.73;;
51660;SDS011;37741;49.748;8.490;2023-04-24T08:59:05;3.30;;;1.75;;
51660;SDS011;37741;49.748;8.490;2023-04-24T09:01:31;2.50;;;1.70;;
51660;SDS011;37741;49.748;8.490;2023-04-24T09:03:58;2.47;;;1.48;;
51660;SDS011;37741;49.748;8.490;2023-04-24T09:06:29;4.40;;;1.63;;
51660;SDS011;37741;49.748;8.490;2023-04-24T09:08:57;2.85;;;1.80;;
51660;SDS011;37741;49.748;8.490;2023-04-24T09:11:26;2.92;;;2.13;;
51660;SDS011;37741;49.748;8.490;2023-04-24T09:13:53;3.38;;;1.73;;
51660;SDS011;37741;49.748;8.490;2023-04-24T09:16:19;3.20;;;1.73;;
51660;SDS011;37741;49.748;8.490;2023-04-24T09:18:45;3.55;;;1.88;;
51660;SDS011;37741;49.748;8.490;2023-04-24T09:21:11;4.03;;;1.75;;
51660;SDS011;37741;49.748;8.490;2023-04-24T09:23:37;3.60;;;1.92;;
51660;SDS011;37741;49.748;8.490;2023-04-24T09:26:03;3.40;;;2.00;;
51660;SDS011;37741;49.748;8.490;2023-04-24T09:28:40;3.25;;;2.20;;
51660;SDS011;37741;49.748;8.490;2023-04-24T09:33:36;4.28;;;2.47;;
51660;SDS011;37741;49.748;8.490;2023-04-24T09:36:02;3.75;;;2.08;;
51660;SDS011;37741;49.748;8.490;2023-04-24T09:38:38;3.40;;;2.50;;
51660;SDS011;37741;49.748;8.490;2023-04-24T09:41:07;3.17;;;2.30;;
51660;SDS011;37741;49.748;8.490;2023-04-24T09:43:38;3.10;;;2.00;;
51660;SDS011;37741;49.748;8.490;2023-04-24T09:46:04;4.10;;;2.50;;
51660;SDS011;37741;49.748;8.490;2023-04-24T09:48:32;3.85;;;2.35;;
51660;SDS011;37741;49.748;8.490;2023-04-24T09:50:59;3.92;;;1.92;;
51660;SDS011;37741;49.748;8.490;2023-04-24T09:53:26;3.00;;;2.03;;
51660;SDS011;37741;49.748;8.490;2023-04-24T09:55:52;4.28;;;1.98;;
51660;SDS011;37741;49.748;8.490;2023-04-24T09:58:18;2.50;;;1.73;;
51660;SDS011;37741;49.748;8.490;2023-04-24T10:00:53;5.03;;;2.22;;
51660;SDS011;37741;49.748;8.490;2023-04-24T10:03:19;3.05;;;2.00;;
51660;SDS011;37741;49.748;8.490;2023-04-24T10:05:45;2.30;;;1.58;;
51660;SDS011;37741;49.748;8.490;2023-04-24T10:08:12;3.03;;;1.42;;
51660;SDS011;37741;49.748;8.490;2023-04-24T10:10:40;2.80;;;1.80;;
51660;SDS011;37741;49.748;8.490;2023-04-24T10:13:07;5.70;;;1.70;;
51660;SDS011;37741;49.748;8.490;2023-04-24T10:15:35;2.63;;;1.75;;
51660;SDS011;37741;49.748;8.490;2023-04-24T10:18:01;2.80;;;1.70;;
51660;SDS011;37741;49.748;8.490;2023-04-24T10:20:29;3.42;;;2.03;;
51660;SDS011;37741;49.748;8.490;2023-04-24T10:22:56;3.38;;;1.50;;
51660;SDS011;37741;49.748;8.490;2023-04-24T10:25:24;2.50;;;1.48;;
51660;SDS011;37741;49.748;8.490;2023-04-24T10:27:57;4.50;;;1.88;;
51660;SDS011;37741;49.748;8.490;2023-04-24T10:30:25;2.50;;;1.63;;
51660;SDS011;37741;49.748;8.490;2023-04-24T10:32:55;3.08;;;1.75;;
51660;SDS011;37741;49.748;8.490;2023-04-24T10:35:21;3.42;;;2.10;;
51660;SDS011;37741;49.748;8.490;2023-04-24T10:38:04;4.00;;;1.88;;
51660;SDS011;37741;49.748;8.490;2023-04-24T10:40:33;2.63;;;1.70;;
51660;SDS011;37741;49.748;8.490;2023-04-24T10:43:02;5.05;;;1.67;;
51660;SDS011;37741;49.748;8.490;2023-04-24T10:45:31;2.78;;;1.55;;
51660;SDS011;37741;49.748;8.490;2023-04-24T10:48:03;3.95;;;1.60;;
51660;SDS011;37741;49.748;8.490;2023-04-24T10:50:51;2.70;;;1.67;;
51660;SDS011;37741;49.748;8.490;2023-04-24T10:53:22;3.70;;;1.40;;
51660;SDS011;37741;49.748;8.490;2023-04-24T10:55:52;3.55;;;1.88;;
51660;SDS011;37741;49.748;8.490;2023-04-24T10:58:24;2.58;;;1.48;;
51660;SDS011;37741;49.748;8.490;2023-04-24T11:01:00;4.93;;;1.67;;
51660;SDS011;37741;49.748;8.490;2023-04-24T11:03:29;2.10;;;1.23;;
51660;SDS011;37741;49.748;8.490;2023-04-24T11:11:03;3.20;;;1.48;;
51660;SDS011;37741;49.748;8.490;2023-04-24T11:18:52;2.83;;;1.60;;
51660;SDS011;37741;49.748;8.490;2023-04-24T11:21:24;3.17;;;2.08;;
51660;SDS011;37741;49.748;8.490;2023-04-24T11:23:51;4.78;;;1.40;;
51660;SDS011;37741;49.748;8.490;2023-04-24T11:26:23;3.80;;;1.33;;
51660;SDS011;37741;49.748;8.490;2023-04-24T11:28:55;3.30;;;1.73;;
51660;SDS011;37741;49.748;8.490;2023-04-24T11:31:38;2.25;;;1.50;;
51660;SDS011;37741;49.748;8.490;2023-04-24T11:34:10;2.55;;;1.70;;
51660;SDS011;37741;49.748;8.490;2023-04-24T11:36:38;3.38;;;1.65;;
51660;SDS011;37741;49.748;8.490;2023-04-24T11:39:04;4.45;;;1.73;;
51660;SDS011;37741;49.748;8.490;2023-04-24T11:41:30;3.10;;;1.90;;
51660;SDS011;37741;49.748;8.490;2023-04-24T11:43:56;3.33;;;1.75;;
51660;SDS011;37741;49.748;8.490;2023-04-24T11:46:22;3.90;;;1.63;;
51660;SDS011;37741;49.748;8.490;2023-04-24T11:48:51;4.18;;;1.83;;
51660;SDS011;37741;49.748;8.490;2023-04-24T11:51:16;2.75;;;1.42;;
51660;SDS011;37741;49.748;8.490;2023-04-24T11:53:42;3.22;;;1.80;;
51660;SDS011;37741;49.748;8.490;2023-04-24T11:56:11;3.53;;;1.60;;
51660;SDS011;37741;49.748;8.490;2023-04-24T11:58:37;3.33;;;2.20;;
51660;SDS011;37741;49.748;8.490;2023-04-24T12:01:04;3.83;;;1.80;;
51660;SDS011;37741;49.748;8.490;2023-04-24T12:03:30;3.53;;;1.85;;
51660;SDS011;37741;49.748;8.490;2023-04-24T12:06:09;5.97;;;1.92;;
51660;SDS011;37741;49.748;8.490;2023-04-24T12:08:36;3.85;;;1.70;;
51660;SDS011;37741;49.748;8.490;2023-04-24T12:11:03;2.78;;;1.60;;
51660;SDS011;37741;49.748;8.490;2023-04-24T12:13:34;2.45;;;1.63;;
51660;SDS011;37741;49.748;8.490;2023-04-24T12:16:03;4.18;;;2.28;;
51660;SDS011;37741;49.748;8.490;2023-04-24T12:18:32;3.45;;;1.80;;
51660;SDS011;37741;49.748;8.490;2023-04-24T12:23:46;2.50;;;1.73;;
51660;SDS011;37741;49.748;8.490;2023-04-24T12:26:15;3.30;;;1.85;;
51660;SDS011;37741;49.748;8.490;2023-04-24T12:28:46;2.60;;;1.63;;
51660;SDS011;37741;49.748;8.490;2023-04-24T12:31:13;4.18;;;2.13;;
51660;SDS011;37741;49.748;8.490;2023-04-24T12:33:39;3.72;;;2.08;;
51660;SDS011;37741;49.748;8.490;2023-04-24T12:36:05;4.85;;;2.03;;
51660;SDS011;37741;49.748;8.490;2023-04-24T12:38:31;3.25;;;2.20;;
51660;SDS011;37741;49.748;8.490;2023-04-24T12:41:09;2.83;;;2.03;;
51660;SDS011;37741;49.748;8.490;2023-04-24T12:43:36;4.63;;;2.10;;
51660;SDS011;37741;49.748;8.490;2023-04-24T12:46:02;3.22;;;2.10;;
51660;SDS011;37741;49.748;8.490;2023-04-24T12:48:28;2.97;;;2.00;;
51660;SDS011;37741;49.748;8.490;2023-04-24T12:50:56;5.10;;;2.03;;
51660;SDS011;37741;49.748;8.490;2023-04-24T12:53:25;3.22;;;2.03;;
51660;SDS011;37741;49.748;8.490;2023-04-24T12:55:51;4.20;;;1.95;;
51660;SDS011;37741;49.748;8.490;2023-04-24T12:58:20;4.15;;;1.98;;
51660;SDS011;37741;49.748;8.490;2023-04-24T13:00:47;4.30;;;2.30;;
51660;SDS011;37741;49.748;8.490;2023-04-24T13:03:13;4.10;;;1.83;;
51660;SDS011;37741;49.748;8.490;2023-04-24T13:05:39;3.15;;;2.10;;
51660;SDS011;37741;49.748;8.490;2023-04-24T13:08:05;4.40;;;2.20;;
51660;SDS011;37741;49.748;8.490;2023-04-24T13:10:31;3.10;;;2.10;;
51660;SDS011;37741;49.748;8.490;2023-04-24T13:12:56;3.33;;;2.22;;
51660;SDS011;37741;49.748;8.490;2023-04-24T13:15:22;3.72;;;2.70;;
51660;SDS011;37741;49.748;8.490;2023-04-24T13:17:48;3.78;;;1.90;;
51660;SDS011;37741;49.748;8.490;2023-04-24T13:20:14;2.65;;;1.77;;
51660;SDS011;37741;49.748;8.490;2023-04-24T13:22:40;3.65;;;2.40;;
51660;SDS011;37741;49.748;8.490;2023-04-24T13:25:05;4.00;;;1.90;;
51660;SDS011;37741;49.748;8.490;2023-04-24T13:27:32;3.15;;;1.70;;
51660;SDS011;37741;49.748;8.490;2023-04-24T13:29:58;3.80;;;2.30;;
51660;SDS011;37741;49.748;8.490;2023-04-24T13:32:23;4.15;;;2.35;;
51660;SDS011;37741;49.748;8.490;2023-04-24T13:34:50;3.70;;;1.95;;
51660;SDS011;37741;49.748;8.490;2023-04-24T13:37:15;3.35;;;1.90;;
51660;SDS011;37741;49.748;8.490;2023-04-24T13:39:41;3.72;;;1.92;;
51660;SDS011;37741;49.748;8.490;2023-04-24T13:42:06;3.17;;;1.83;;
51660;SDS011;37741;49.748;8.490;2023-04-24T13:44:32;5.13;;;2.05;;
51660;SDS011;37741;49.748;8.490;2023-04-24T13:46:58;3.83;;;1.90;;
51660;SDS011;37741;49.748;8.490;2023-04-24T13:49:24;2.95;;;1.88;;
51660;SDS011;37741;49.748;8.490;2023-04-24T13:51:50;3.75;;;2.00;;
51660;SDS011;37741;49.748;8.490;2023-04-24T13:54:16;5.88;;;2.22;;
51660;SDS011;37741;49.748;8.490;2023-04-24T13:56:42;4.75;;;1.98;;
51660;SDS011;37741;49.748;8.490;2023-04-24T13:59:08;3.25;;;1.80;;
51660;SDS011;37741;49.748;8.490;2023-04-24T14:01:34;3.08;;;1.92;;
51660;SDS011;37741;49.748;8.490;2023-04-24T14:04:00;3.47;;;1.75;;
51660;SDS011;37741;49.748;8.490;2023-04-24T14:06:25;3.50;;;1.98;;
51660;SDS011;37741;49.748;8.490;2023-04-24T14:08:51;2.88;;;1.88;;
51660;SDS011;37741;49.748;8.490;2023-04-24T14:11:17;3.58;;;1.92;;
51660;SDS011;37741;49.748;8.490;2023-04-24T14:13:44;4.50;;;2.00;;
51660;SDS011;37741;49.748;8.490;2023-04-24T14:16:10;3.22;;;1.92;;
51660;SDS011;37741;49.748;8.490;2023-04-24T14:18:36;3.95;;;1.85;;
51660;SDS011;37741;49.748;8.490;2023-04-24T14:21:02;3.53;;;1.98;;
51660;SDS011;37741;49.748;8.490;2023-04-24T14:23:28;3.22;;;1.70;;
51660;SDS011;37741;49.748;8.490;2023-04-24T14:25:54;3.20;;;1.73;;
51660;SDS011;37741;49.748;8.490;2023-04-24T14:28:20;3.17;;;1.80;;
51660;SDS011;37741;49.748;8.490;2023-04-24T14:30:49;2.60;;;1.83;;
51660;SDS011;37741;49.748;8.490;2023-04-24T14:33:15;2.85;;;1.40;;
51660;SDS011;37741;49.748;8.490;2023-04-24T14:35:41;4.18;;;2.47;;
51660;SDS011;37741;49.748;8.490;2023-04-24T14:38:07;2.78;;;1.80;;
51660;SDS011;37741;49.748;8.490;2023-04-24T14:40:33;3.13;;;2.00;;
51660;SDS011;37741;49.748;8.490;2023-04-24T14:42:59;4.07;;;1.60;;
51660;SDS011;37741;49.748;8.490;2023-04-24T14:45:25;3.08;;;1.80;;
51660;SDS011;37741;49.748;8.490;2023-04-24T14:47:51;2.75;;;1.75;;
51660;SDS011;37741;49.748;8.490;2023-04-24T14:50:18;2.75;;;1.73;;
51660;SDS011;37741;49.748;8.490;2023-04-24T14:52:44;3.03;;;1.73;;
51660;SDS011;37741;49.748;8.490;2023-04-24T14:55:09;3.80;;;2.17;;
51660;SDS011;37741;49.748;8.490;2023-04-24T14:57:35;2.90;;;1.70;;
51660;SDS011;37741;49.748;8.490;2023-04-24T15:00:02;3.13;;;1.83;;